Time;durP1;ratioP1;P1;durP2;ratioP2;P2;SDS_P1;SDS_P2;PMS_P1;PMS_P2;Temp;Humidity;BMP_temperature;BMP_pressure;BME280_temperature;BME280_humidity;BME280_pressure;Samples;Min_cycle;Max_cycle;Signal;HPM_P1;HPM_P2
2022/05/23 00:01:44;;;;;;;3.70;2.40;;;17.30;99.90;;;;;;5008574;28;20205;-60
2022/05/23 00:04:10;;;;;;;4.33;2.80;;;17.30;99.90;;;;;;4995796;28;20184;-54
2022/05/23 00:06:36;;;;;;;2.93;2.67;;;17.20;99.90;;;;;;5004907;28;20185;-57
2022/05/23 00:09:02;;;;;;;3.03;2.73;;;17.10;99.90;;;;;;5003170;28;20188;-57
2022/05/23 00:11:28;;;;;;;2.87;2.50;;;17.10;99.90;;;;;;4997321;28;20284;-58
2022/05/23 00:13:54;;;;;;;3.10;2.80;;;17.10;99.90;;;;;;5007927;28;20284;-59
2022/05/23 00:16:22;;;;;;;3.27;2.90;;;17.10;99.90;;;;;;4997115;28;20634;-57
2022/05/23 00:18:48;;;;;;;5.03;3.63;;;17.10;99.90;;;;;;5002663;28;20174;-58
2022/05/23 00:21:15;;;;;;;4.90;4.37;;;17.10;99.90;;;;;;5004336;28;20296;-58
2022/05/23 00:23:41;;;;;;;4.40;4.00;;;17.10;99.90;;;;;;4977856;28;20600;-57
2022/05/23 00:26:06;;;;;;;3.50;3.20;;;17.10;99.90;;;;;;5010170;28;20176;-59
2022/05/23 00:28:32;;;;;;;3.17;2.73;;;17.10;99.90;;;;;;5004483;28;20190;-57
2022/05/23 00:30:58;;;;;;;3.23;2.70;;;17.10;99.90;;;;;;5002075;28;20270;-57
2022/05/23 00:36:08;;;;;;;3.30;2.67;;;17.20;99.90;;;;;;4991801;28;20184;-56
2022/05/23 00:38:33;;;;;;;3.47;3.07;;;17.10;99.90;;;;;;4992062;28;20670;-59
2022/05/23 00:44:09;;;;;;;3.20;2.90;;;17.20;99.90;;;;;;4995696;28;20164;-58
2022/05/23 00:46:34;;;;;;;3.03;2.73;;;17.20;99.90;;;;;;4995761;28;20189;-57
2022/05/23 00:49:04;;;;;;;3.47;2.80;;;17.10;99.90;;;;;;4995586;28;20174;-57
2022/05/23 00:51:31;;;;;;;2.80;2.60;;;17.10;99.90;;;;;;4995574;28;20614;-57
2022/05/23 00:54:00;;;;;;;3.00;2.70;;;17.10;99.90;;;;;;4995249;28;20169;-58
2022/05/23 00:56:32;;;;;;;3.43;2.80;;;17.10;99.90;;;;;;4995620;28;20182;-59
2022/05/23 00:59:02;;;;;;;3.77;2.87;;;17.10;99.90;;;;;;4995527;28;20162;-55
2022/05/23 01:01:31;;;;;;;4.40;2.80;;;17.10;99.90;;;;;;4995373;28;20189;-59
2022/05/23 01:03:56;;;;;;;4.00;2.60;;;17.10;99.90;;;;;;4995192;28;20165;-58
2022/05/23 01:06:22;;;;;;;3.47;2.53;;;17.60;99.90;;;;;;4995458;28;20177;-56
2022/05/23 01:08:52;;;;;;;3.03;2.70;;;17.10;99.90;;;;;;4995325;28;20170;-59
2022/05/23 01:11:18;;;;;;;3.93;3.27;;;17.00;99.90;;;;;;4995374;28;20539;-57
2022/05/23 01:13:44;;;;;;;4.33;3.07;;;17.00;99.90;;;;;;4995032;28;20264;-58
2022/05/23 01:16:09;;;;;;;3.53;3.03;;;17.00;99.90;;;;;;4995301;28;20608;-57
2022/05/23 01:18:35;;;;;;;3.37;2.80;;;17.00;99.90;;;;;;4995037;28;20666;-60
2022/05/23 01:21:03;;;;;;;4.80;3.00;;;17.00;99.90;;;;;;4995079;28;20284;-58
2022/05/23 01:23:53;;;;;;;2.90;2.70;;;17.00;99.90;;;;;;4994979;28;20224;-58
2022/05/23 01:26:19;;;;;;;4.30;2.97;;;17.10;99.90;;;;;;4995065;28;20540;-55
2022/05/23 01:28:44;;;;;;;3.80;2.97;;;17.10;99.90;;;;;;4994740;28;20276;-60
2022/05/23 01:31:12;;;;;;;3.87;2.60;;;17.00;99.90;;;;;;4994827;28;20205;-54
2022/05/23 01:33:39;;;;;;;2.70;2.50;;;17.10;99.90;;;;;;4994677;28;20201;-58
2022/05/23 01:36:10;;;;;;;2.87;2.57;;;17.00;99.90;;;;;;4994884;28;20257;-56
2022/05/23 01:38:35;;;;;;;3.10;2.60;;;17.00;99.90;;;;;;4994766;28;20176;-58
2022/05/23 01:41:01;;;;;;;3.57;3.00;;;16.90;99.90;;;;;;4977161;28;20205;-57
2022/05/23 01:43:27;;;;;;;3.00;2.70;;;16.80;99.90;;;;;;4997453;28;20569;-57
2022/05/23 01:45:52;;;;;;;2.97;2.63;;;16.70;99.90;;;;;;5014108;28;20177;-58
2022/05/23 01:48:18;;;;;;;4.57;2.97;;;16.70;99.90;;;;;;5014065;28;20281;-56
2022/05/23 01:50:43;;;;;;;2.93;2.50;;;16.60;99.90;;;;;;5014181;28;20745;-55
2022/05/23 01:53:09;;;;;;;2.97;2.77;;;16.60;99.90;;;;;;4995557;28;20272;-59
2022/05/23 01:55:36;;;;;;;3.53;2.83;;;16.60;99.90;;;;;;5013813;28;20653;-58
2022/05/23 01:58:03;;;;;;;3.43;2.90;;;16.60;99.90;;;;;;5013807;28;20175;-58
2022/05/23 02:03:12;;;;;;;4.03;2.80;;;16.70;99.90;;;;;;5014270;28;20183;-60
2022/05/23 02:05:38;;;;;;;3.20;2.90;;;16.90;99.90;;;;;;5013652;28;20181;-57
2022/05/23 02:08:04;;;;;;;4.07;3.10;;;16.80;99.90;;;;;;5013753;28;20207;-56
2022/05/23 02:10:30;;;;;;;8.03;3.50;;;16.80;99.90;;;;;;5013594;28;20279;-57
2022/05/23 02:12:56;;;;;;;3.80;3.40;;;16.80;99.90;;;;;;5013771;28;20255;-57
2022/05/23 02:15:22;;;;;;;3.67;3.20;;;16.80;99.90;;;;;;5014904;28;20172;-57
2022/05/23 02:17:48;;;;;;;6.37;3.50;;;16.80;99.90;;;;;;5013720;28;20546;-58
2022/05/23 02:20:14;;;;;;;4.70;3.40;;;16.90;99.90;;;;;;5013644;28;20169;-59
2022/05/23 02:22:40;;;;;;;4.40;3.50;;;16.90;99.90;;;;;;5013548;28;20207;-58
2022/05/23 02:25:07;;;;;;;5.23;3.40;;;17.00;99.90;;;;;;5013181;28;20173;-59
2022/05/23 02:27:32;;;;;;;4.30;3.37;;;17.10;99.90;;;;;;5013234;28;20664;-59
2022/05/23 02:29:58;;;;;;;3.23;2.93;;;17.10;99.90;;;;;;5013378;28;20197;-57
2022/05/23 02:32:24;;;;;;;4.00;3.60;;;17.10;99.90;;;;;;5013451;28;20562;-59
2022/05/23 02:34:50;;;;;;;3.57;3.27;;;17.10;99.90;;;;;;5013104;28;20172;-59
2022/05/23 02:37:16;;;;;;;3.67;3.00;;;17.10;99.90;;;;;;5013194;28;20177;-57
2022/05/23 02:39:42;;;;;;;3.27;3.00;;;17.00;99.90;;;;;;5013212;28;20227;-56
2022/05/23 02:42:08;;;;;;;4.30;3.10;;;17.00;99.90;;;;;;5013134;28;20223;-59
2022/05/23 02:44:34;;;;;;;3.07;2.80;;;17.00;99.90;;;;;;5013290;28;20666;-56
2022/05/23 02:47:00;;;;;;;3.73;2.97;;;17.00;99.90;;;;;;5013201;28;20187;-56
2022/05/23 02:49:26;;;;;;;6.37;3.20;;;17.00;99.90;;;;;;5012867;28;20283;-54
2022/05/23 02:51:53;;;;;;;4.00;2.90;;;17.10;99.90;;;;;;4995394;28;20192;-57
2022/05/23 02:54:18;;;;;;;5.73;2.90;;;17.10;99.90;;;;;;5012624;28;20195;-56
2022/05/23 02:56:44;;;;;;;3.00;2.53;;;17.10;99.90;;;;;;5013015;28;20208;-56
2022/05/23 02:59:10;;;;;;;2.73;2.53;;;17.20;99.90;;;;;;5012913;28;20177;-54
2022/05/23 03:03:01;;;;;;;4.10;2.83;;;17.20;99.90;;;;;;5012850;28;20718;-57
2022/05/23 03:04:21;;;;;;;2.90;2.70;;;17.20;99.90;;;;;;5012237;28;20185;-56
2022/05/23 03:06:46;;;;;;;4.07;3.00;;;17.20;99.90;;;;;;5012722;28;20550;-59
2022/05/23 03:09:12;;;;;;;3.57;3.27;;;17.10;99.90;;;;;;5012559;28;20211;-58
2022/05/23 03:11:37;;;;;;;5.17;3.57;;;17.10;99.90;;;;;;5012848;28;20198;-56
2022/05/23 03:14:03;;;;;;;4.37;3.80;;;17.00;99.90;;;;;;5012423;28;20168;-56
2022/05/23 03:16:28;;;;;;;4.50;4.10;;;16.90;99.90;;;;;;5012631;28;20650;-57
2022/05/23 03:18:54;;;;;;;4.13;3.60;;;16.90;99.90;;;;;;5012584;28;20173;-57
2022/05/23 03:27:00;;;;;;;4.20;3.10;;;16.90;99.90;;;;;;5012490;28;20653;-60
2022/05/23 03:29:30;;;;;;;5.40;3.47;;;16.90;99.90;;;;;;4994707;28;20192;-59
2022/05/23 03:31:56;;;;;;;4.47;2.80;;;16.90;99.90;;;;;;5012232;28;20247;-59
2022/05/23 03:34:21;;;;;;;3.30;2.67;;;16.90;99.90;;;;;;5012128;28;20173;-57
2022/05/23 03:36:47;;;;;;;3.43;3.00;;;17.00;99.90;;;;;;5012572;28;20178;-55
2022/05/23 03:39:12;;;;;;;3.37;2.67;;;17.00;99.90;;;;;;5012237;28;20251;-58
2022/05/23 03:41:39;;;;;;;3.83;3.03;;;17.00;99.90;;;;;;5012113;28;20294;-57
2022/05/23 03:44:08;;;;;;;3.10;2.80;;;17.10;99.90;;;;;;5011819;28;20180;-58
2022/05/23 03:46:34;;;;;;;3.87;2.90;;;17.10;99.90;;;;;;5012228;28;20180;-58
2022/05/23 03:49:01;;;;;;;3.47;2.60;;;17.10;99.90;;;;;;5005624;28;20193;-57
2022/05/23 03:51:27;;;;;;;3.27;2.80;;;17.20;99.90;;;;;;5026777;28;20190;-59
2022/05/23 03:53:53;;;;;;;2.67;2.47;;;17.10;99.90;;;;;;5016573;28;20173;-57
2022/05/23 03:56:18;;;;;;;2.77;2.30;;;17.10;99.90;;;;;;5004554;28;20642;-59
2022/05/23 03:58:44;;;;;;;4.20;2.80;;;17.20;99.90;;;;;;4995977;28;20185;-56
2022/05/23 04:01:16;;;;;;;2.70;2.50;;;17.20;99.90;;;;;;5008264;28;20208;-57
2022/05/23 04:03:42;;;;;;;2.47;2.20;;;17.10;99.90;;;;;;4999292;28;20176;-58
2022/05/23 04:06:08;;;;;;;3.00;2.50;;;17.00;99.90;;;;;;5011250;28;20521;-55
2022/05/23 04:08:34;;;;;;;2.87;2.03;;;17.10;99.90;;;;;;5006367;28;20176;-57
2022/05/23 04:11:00;;;;;;;2.80;2.50;;;17.20;99.90;;;;;;4995291;28;20204;-59
2022/05/23 04:13:26;;;;;;;3.47;2.70;;;17.40;99.90;;;;;;5006342;28;20704;-58
2022/05/23 04:15:52;;;;;;;2.60;2.40;;;17.20;99.90;;;;;;5002252;28;20195;-59
2022/05/23 04:18:18;;;;;;;2.50;2.30;;;17.10;99.90;;;;;;5003304;28;20193;-59
2022/05/23 04:20:44;;;;;;;2.73;2.40;;;17.20;99.90;;;;;;5011693;28;20222;-57
2022/05/23 04:23:10;;;;;;;3.57;2.37;;;17.30;99.90;;;;;;5012678;28;20177;-58
2022/05/23 04:25:41;;;;;;;2.80;2.50;;;17.30;99.90;;;;;;5002289;28;20177;-59
2022/05/23 04:28:07;;;;;;;2.80;2.60;;;17.40;99.90;;;;;;5015599;28;20642;-59
2022/05/23 04:30:33;;;;;;;4.03;2.40;;;17.40;99.90;;;;;;5001024;28;20680;-58
2022/05/23 04:35:42;;;;;;;4.77;2.80;;;17.50;99.90;;;;;;5003339;28;20207;-58
2022/05/23 04:38:08;;;;;;;3.50;3.20;;;17.50;99.90;;;;;;5004369;28;20399;-56
2022/05/23 04:40:34;;;;;;;4.63;3.03;;;17.40;99.90;;;;;;5009728;28;20661;-57
2022/05/23 04:43:00;;;;;;;4.27;3.00;;;17.40;99.90;;;;;;5013604;28;20170;-58
2022/05/23 04:45:26;;;;;;;4.97;3.50;;;17.30;99.90;;;;;;5009783;28;20318;-56
2022/05/23 04:50:35;;;;;;;5.00;3.50;;;17.50;99.90;;;;;;5015143;28;20316;-59
2022/05/23 04:53:01;;;;;;;4.47;3.80;;;17.60;99.90;;;;;;4998726;28;20674;-57
2022/05/23 04:55:27;;;;;;;4.30;3.90;;;17.70;99.90;;;;;;5009366;28;20207;-59
2022/05/23 04:57:54;;;;;;;4.80;3.70;;;17.70;99.90;;;;;;5004233;28;20685;-57
2022/05/23 05:00:21;;;;;;;4.03;3.63;;;17.80;99.90;;;;;;5014995;28;20178;-57
2022/05/23 05:02:48;;;;;;;3.33;3.03;;;17.80;99.90;;;;;;4998750;28;20278;-59
2022/05/23 05:05:16;;;;;;;5.57;3.43;;;17.80;99.90;;;;;;4998799;28;20175;-58
2022/05/23 05:07:41;;;;;;;3.50;3.20;;;17.90;99.90;;;;;;5007293;28;20239;-59
2022/05/23 05:10:07;;;;;;;4.97;3.93;;;18.00;99.90;;;;;;5005852;28;20204;-59
2022/05/23 05:12:33;;;;;;;5.43;3.83;;;18.00;99.90;;;;;;5000505;28;20610;-58
2022/05/23 05:14:59;;;;;;;3.67;3.00;;;18.00;99.90;;;;;;5010946;28;20200;-56
2022/05/23 05:17:25;;;;;;;4.03;3.30;;;18.70;99.90;;;;;;5000019;28;20262;-57
2022/05/23 05:19:51;;;;;;;4.57;3.23;;;18.20;99.90;;;;;;5006105;28;20177;-58
2022/05/23 05:22:16;;;;;;;3.83;3.40;;;18.30;99.90;;;;;;5006894;28;20292;-57
2022/05/23 05:24:42;;;;;;;3.70;2.97;;;18.30;99.90;;;;;;4996584;28;20177;-57
2022/05/23 05:27:09;;;;;;;3.90;2.77;;;18.30;99.90;;;;;;4998151;28;20179;-58
2022/05/23 05:29:35;;;;;;;3.90;2.60;;;18.30;99.90;;;;;;5007939;28;20205;-58
2022/05/23 05:32:26;;;;;;;2.30;2.10;;;18.30;99.90;;;;;;5004523;28;20258;-59
2022/05/23 05:34:59;;;;;;;2.77;2.57;;;18.30;99.90;;;;;;5013470;28;20181;-58
2022/05/23 05:37:31;;;;;;;3.63;2.20;;;18.10;99.90;;;;;;4982166;28;20665;-57
2022/05/23 05:40:00;;;;;;;3.47;2.30;;;18.00;99.90;;;;;;5005085;28;20162;-56
2022/05/23 05:42:33;;;;;;;3.03;2.33;;;18.20;99.90;;;;;;5007664;28;20227;-60
2022/05/23 05:45:04;;;;;;;3.20;2.30;;;18.20;99.90;;;;;;5010697;28;20168;-58
2022/05/23 05:47:32;;;;;;;2.67;2.37;;;18.10;99.90;;;;;;4982481;28;20650;-52
2022/05/23 05:50:03;;;;;;;2.47;2.27;;;17.90;99.90;;;;;;5004533;28;20561;-56
2022/05/23 05:52:33;;;;;;;2.63;2.37;;;18.10;99.90;;;;;;5007977;28;20200;-57
2022/05/23 05:55:00;;;;;;;2.80;2.30;;;18.20;99.90;;;;;;5012148;28;20173;-60
2022/05/23 05:57:26;;;;;;;3.10;2.50;;;18.30;99.90;;;;;;4999334;28;20212;-57
2022/05/23 05:59:51;;;;;;;3.17;2.40;;;18.30;99.90;;;;;;5010638;28;20189;-58
2022/05/23 06:02:17;;;;;;;3.17;2.40;;;18.40;99.90;;;;;;5012153;28;20196;-56
2022/05/23 06:04:43;;;;;;;2.97;2.20;;;18.40;99.90;;;;;;5012348;28;20180;-58
2022/05/23 06:12:44;;;;;;;3.37;2.13;;;18.70;99.90;;;;;;5009605;28;20246;-55
2022/05/23 06:15:09;;;;;;;2.47;2.27;;;18.80;99.90;;;;;;5009968;28;20173;-53
2022/05/23 06:17:43;;;;;;;2.40;2.20;;;18.80;99.90;;;;;;4998555;28;20177;-57
2022/05/23 06:20:11;;;;;;;2.40;2.20;;;18.80;99.90;;;;;;5013143;28;20673;-55
2022/05/23 06:22:36;;;;;;;2.80;2.50;;;19.00;99.90;;;;;;5013502;28;20249;-56
2022/05/23 06:25:02;;;;;;;4.20;2.77;;;18.90;99.90;;;;;;4996496;28;20260;-59
2022/05/23 06:27:28;;;;;;;5.00;2.43;;;18.70;99.90;;;;;;5007839;28;20540;-58
2022/05/23 06:29:54;;;;;;;3.23;2.47;;;18.60;99.90;;;;;;5002475;28;20207;-58
2022/05/23 06:32:21;;;;;;;2.93;2.23;;;18.50;99.90;;;;;;5000339;28;20189;-57
2022/05/23 06:34:47;;;;;;;4.93;2.57;;;18.60;99.90;;;;;;5008756;28;20180;-57
2022/05/23 06:37:12;;;;;;;3.00;2.33;;;18.80;99.90;;;;;;4992150;28;20184;-59
2022/05/23 06:39:38;;;;;;;2.77;2.30;;;19.00;99.90;;;;;;4993227;28;20193;-53
2022/05/23 06:42:05;;;;;;;3.07;2.47;;;19.10;99.90;;;;;;5003538;28;20215;-57
2022/05/23 06:44:30;;;;;;;3.67;2.30;;;19.40;99.90;;;;;;5011108;28;20183;-57
2022/05/23 06:46:56;;;;;;;3.80;2.17;;;19.40;99.90;;;;;;5001004;28;20264;-59
2022/05/23 06:49:22;;;;;;;3.97;2.23;;;19.40;99.90;;;;;;5008097;28;20199;-58
2022/05/23 06:51:51;;;;;;;2.93;2.30;;;19.50;99.90;;;;;;4998461;28;20219;-59
2022/05/23 06:54:18;;;;;;;6.17;2.43;;;19.70;99.90;;;;;;5009912;28;20173;-55
2022/05/23 06:56:44;;;;;;;2.20;2.00;;;19.80;99.90;;;;;;5010821;28;20181;-59
2022/05/23 06:59:11;;;;;;;2.97;2.20;;;19.90;99.90;;;;;;5009334;28;20562;-57
2022/05/23 07:01:37;;;;;;;3.13;2.33;;;20.10;99.90;;;;;;5009420;28;20586;-57
2022/05/23 07:04:02;;;;;;;2.30;2.10;;;20.20;99.90;;;;;;5012133;28;20173;-58
2022/05/23 07:14:41;;;;;;;2.10;1.90;;;20.50;99.90;;;;;;4996920;28;20180;-57
2022/05/23 07:17:07;;;;;;;3.33;2.17;;;20.50;99.90;;;;;;5008836;28;20169;-59
2022/05/23 07:19:35;;;;;;;3.67;2.30;;;20.60;99.90;;;;;;4998816;28;20645;-58
2022/05/23 07:22:02;;;;;;;2.47;2.23;;;20.70;99.90;;;;;;5002293;28;20204;-58
2022/05/23 07:24:30;;;;;;;3.03;2.30;;;20.90;99.90;;;;;;5005882;28;20169;-60
2022/05/23 07:26:56;;;;;;;3.13;2.17;;;21.10;99.90;;;;;;5010174;28;20177;-60
2022/05/23 07:29:22;;;;;;;4.15;2.47;;;21.20;99.90;;;;;;5010868;28;20562;-58
2022/05/23 07:31:49;;;;;;;3.50;2.45;;;21.50;99.90;;;;;;5003884;28;20263;-59
2022/05/23 07:34:15;;;;;;;3.25;2.22;;;21.50;99.90;;;;;;5003839;28;20177;-59
2022/05/23 07:36:40;;;;;;;2.63;2.05;;;21.60;99.90;;;;;;4996949;28;20179;-60
2022/05/23 07:39:08;;;;;;;2.22;2.03;;;21.90;99.90;;;;;;5010938;28;20560;-60
2022/05/23 07:41:34;;;;;;;2.03;1.80;;;21.90;99.90;;;;;;5005642;28;20219;-59
2022/05/23 07:44:00;;;;;;;2.63;2.00;;;22.00;99.90;;;;;;5003234;28;20904;-58
2022/05/23 07:46:26;;;;;;;2.50;2.00;;;22.10;99.90;;;;;;4998947;28;20195;-59
2022/05/23 07:48:51;;;;;;;2.17;2.00;;;22.20;99.10;;;;;;4984672;28;20539;-59
2022/05/23 07:51:20;;;;;;;3.83;1.95;;;22.10;98.70;;;;;;5001957;28;20299;-55
2022/05/23 08:02:01;;;;;;;2.45;1.70;;;21.80;99.70;;;;;;5005049;28;20254;-59
2022/05/23 08:04:27;;;;;;;1.90;1.58;;;21.90;99.90;;;;;;5003098;28;20267;-59
2022/05/23 08:06:53;;;;;;;3.67;1.63;;;21.70;98.90;;;;;;5003631;28;20172;-55
2022/05/23 08:09:19;;;;;;;2.65;1.80;;;21.70;99.40;;;;;;5001219;28;20221;-57
2022/05/23 08:11:49;;;;;;;2.30;1.90;;;21.60;98.20;;;;;;5002684;28;20229;-59
2022/05/23 08:14:15;;;;;;;2.60;1.77;;;21.30;99.20;;;;;;4994600;28;20179;-57
2022/05/23 08:16:42;;;;;;;2.38;1.67;;;21.40;99.80;;;;;;4998115;28;20234;-59
2022/05/23 08:19:08;;;;;;;2.20;1.98;;;21.50;99.90;;;;;;5009288;28;20176;-58
2022/05/23 08:21:38;;;;;;;4.18;2.00;;;21.50;99.00;;;;;;5007663;28;20207;-58
2022/05/23 08:24:04;;;;;;;2.30;2.10;;;21.60;99.80;;;;;;5018885;22;20653;-52
2022/05/23 08:26:29;;;;;;;4.18;1.95;;;21.70;99.70;;;;;;5001989;28;20172;-58
2022/05/23 08:28:55;;;;;;;4.07;1.90;;;21.70;98.60;;;;;;5002413;28;20168;-55
2022/05/23 08:31:20;;;;;;;4.70;1.95;;;21.50;99.50;;;;;;4996134;28;20213;-55
2022/05/23 08:33:46;;;;;;;3.45;1.83;;;21.40;98.80;;;;;;4982094;28;20202;-56
2022/05/23 08:36:12;;;;;;;3.65;1.77;;;21.40;99.70;;;;;;4977050;28;20176;-57
2022/05/23 08:38:37;;;;;;;2.92;2.10;;;21.60;99.30;;;;;;4982802;28;20172;-55
2022/05/23 08:41:15;;;;;;;2.75;2.10;;;21.60;99.10;;;;;;4974041;28;20175;-56
2022/05/23 08:44:08;;;;;;;2.30;1.80;;;21.60;99.50;;;;;;4972282;28;20204;-53
2022/05/23 08:46:56;;;;;;;1.77;1.63;;;21.70;99.80;;;;;;4971700;28;20330;-56
2022/05/23 08:49:24;;;;;;;3.05;2.15;;;22.00;99.90;;;;;;4972359;28;20205;-56
2022/05/23 08:52:14;;;;;;;2.22;1.83;;;22.30;99.90;;;;;;4971258;28;20584;-57
2022/05/23 08:55:04;;;;;;;2.60;2.03;;;22.70;99.20;;;;;;4976557;28;20177;-56
2022/05/23 08:57:42;;;;;;;3.28;2.00;;;22.90;99.90;;;;;;4974038;28;20178;-57
2022/05/23 09:00:14;;;;;;;2.22;1.77;;;22.90;98.10;;;;;;4979415;28;20188;-60
2022/05/23 09:02:45;;;;;;;3.47;2.20;;;23.10;98.90;;;;;;4979582;28;20194;-55
2022/05/23 09:05:20;;;;;;;2.85;2.08;;;23.30;99.90;;;;;;4991071;28;20185;-59
2022/05/23 09:07:52;;;;;;;3.83;1.60;;;23.20;98.90;;;;;;4993792;28;20260;-55
2022/05/23 09:10:33;;;;;;;1.58;1.48;;;23.20;99.00;;;;;;4994455;28;20185;-54
2022/05/23 09:12:59;;;;;;;3.45;1.95;;;23.20;99.00;;;;;;4994612;28;20662;-59
2022/05/23 09:15:25;;;;;;;3.22;1.77;;;23.20;98.50;;;;;;4980398;28;20546;-56
2022/05/23 09:17:56;;;;;;;1.80;1.70;;;23.20;98.90;;;;;;4981599;28;20177;-52
2022/05/23 09:20:45;;;;;;;2.20;2.00;;;23.20;98.00;;;;;;4983312;28;20472;-60
2022/05/23 09:23:25;;;;;;;2.25;2.05;;;23.20;97.70;;;;;;4982838;28;20214;-57
2022/05/23 09:25:55;;;;;;;2.67;1.85;;;23.20;99.90;;;;;;4976255;28;20185;-55
2022/05/23 09:28:37;;;;;;;3.35;2.10;;;23.10;98.70;;;;;;4974578;28;20328;-58
2022/05/23 09:31:21;;;;;;;3.17;2.10;;;23.00;98.70;;;;;;4973374;28;20200;-54
2022/05/23 09:33:50;;;;;;;1.60;1.50;;;23.10;98.70;;;;;;4974122;28;20209;-54
2022/05/23 09:36:22;;;;;;;2.28;1.83;;;23.00;98.50;;;;;;4974441;28;20174;-57
2022/05/23 09:38:58;;;;;;;3.05;2.00;;;22.70;99.40;;;;;;4971915;28;20166;-59
2022/05/23 09:49:56;;;;;;;2.33;2.13;;;22.30;99.90;;;;;;4972815;28;20753;-56
2022/05/23 09:52:31;;;;;;;1.92;1.77;;;22.10;99.90;;;;;;4974012;28;20264;-55
2022/05/23 09:55:05;;;;;;;2.67;2.10;;;22.00;99.90;;;;;;4971264;28;20160;-54
2022/05/23 09:57:35;;;;;;;2.42;2.10;;;21.90;99.90;;;;;;4972027;28;20582;-56
2022/05/23 10:00:07;;;;;;;2.58;2.20;;;21.90;99.90;;;;;;4973918;28;20235;-59
2022/05/23 10:02:39;;;;;;;4.07;2.13;;;22.00;99.90;;;;;;4971770;28;20192;-51
2022/05/23 10:05:22;;;;;;;3.75;2.40;;;22.00;99.90;;;;;;4973661;28;20253;-53
2022/05/23 10:07:50;;;;;;;2.55;2.13;;;22.00;99.90;;;;;;4971280;28;20181;-55
2022/05/23 10:10:24;;;;;;;3.17;2.10;;;21.80;99.90;;;;;;4973638;28;20188;-54
2022/05/23 10:12:51;;;;;;;6.50;2.45;;;21.60;99.90;;;;;;4970897;28;20264;-55
2022/05/23 10:15:28;;;;;;;2.53;2.30;;;21.20;99.90;;;;;;4971920;28;20179;-56
2022/05/23 10:18:04;;;;;;;4.18;2.30;;;20.90;99.90;;;;;;4971984;28;20575;-55
2022/05/23 10:20:40;;;;;;;5.03;2.50;;;20.80;99.90;;;;;;4970012;28;20203;-52
2022/05/23 10:23:12;;;;;;;2.80;2.05;;;20.70;99.90;;;;;;4973358;28;20239;-57
2022/05/23 10:25:46;;;;;;;3.50;2.72;;;20.80;99.90;;;;;;4973541;28;20175;-52
2022/05/23 10:28:18;;;;;;;4.25;2.38;;;20.80;99.90;;;;;;4972609;28;20179;-54
2022/05/23 10:30:57;;;;;;;2.72;2.50;;;20.90;99.90;;;;;;4972564;28;20298;-52
2022/05/23 10:33:27;;;;;;;3.67;2.67;;;21.10;99.90;;;;;;4973596;28;20791;-59
2022/05/23 10:36:10;;;;;;;3.53;2.58;;;21.20;99.90;;;;;;4973452;28;20191;-54
2022/05/23 10:44:26;;;;;;;2.97;2.50;;;22.40;99.90;;;;;;4972267;28;20646;-57
2022/05/23 10:47:08;;;;;;;2.90;2.47;;;22.80;99.90;;;;;;4970795;28;20174;-57
2022/05/23 10:49:53;;;;;;;3.47;2.15;;;23.20;99.90;;;;;;4970931;28;20193;-56
2022/05/23 10:52:24;;;;;;;3.67;2.42;;;23.20;99.90;;;;;;4971377;28;20185;-55
2022/05/23 10:54:58;;;;;;;3.20;2.55;;;23.20;99.90;;;;;;4972540;28;20173;-57
2022/05/23 10:58:09;;;;;;;2.38;2.17;;;23.10;99.90;;;;;;4972883;28;20249;-51
2022/05/23 11:00:47;;;;;;;4.15;2.38;;;23.10;99.90;;;;;;4971131;28;20170;-57
2022/05/23 11:04:10;;;;;;;2.80;2.50;;;23.20;99.90;;;;;;4970489;28;20701;-58
2022/05/23 11:06:59;;;;;;;2.30;2.10;;;23.10;99.90;;;;;;4944612;28;20189;-55
2022/05/23 11:09:42;;;;;;;4.63;2.30;;;23.20;99.90;;;;;;4971911;28;20174;-56
2022/05/23 11:12:28;;;;;;;4.75;2.20;;;23.30;99.90;;;;;;4972392;28;20178;-55
2022/05/23 11:15:04;;;;;;;3.70;2.67;;;23.40;99.90;;;;;;4970429;28;20166;-57
2022/05/23 11:17:54;;;;;;;2.92;2.30;;;23.20;99.90;;;;;;4970042;28;20201;-58
2022/05/23 11:20:23;;;;;;;3.20;2.10;;;23.40;99.90;;;;;;4971268;28;20205;-53
2022/05/23 11:22:56;;;;;;;3.15;2.53;;;23.80;99.90;;;;;;4972174;28;20249;-60
2022/05/23 11:25:35;;;;;;;2.60;2.35;;;24.10;99.90;;;;;;4971955;28;20178;-57
2022/05/23 11:34:09;;;;;;;3.08;2.50;;;24.50;99.90;;;;;;4971940;28;20271;-58
2022/05/23 11:40:08;;;;;;;4.05;3.20;;;24.20;99.90;;;;;;4971134;28;20185;-59
2022/05/23 11:42:42;;;;;;;5.55;3.30;;;24.40;99.90;;;;;;4969281;28;20360;-59
2022/05/23 11:47:54;;;;;;;5.47;3.20;;;24.40;99.90;;;;;;4969643;28;20615;-56
2022/05/23 11:50:25;;;;;;;4.05;3.25;;;24.30;99.90;;;;;;4971983;28;20212;-57
2022/05/23 11:53:23;;;;;;;3.78;2.80;;;23.00;99.80;;;;;;4971979;28;20273;-55
2022/05/23 11:55:55;;;;;;;5.65;3.40;;;24.20;99.90;;;;;;4971753;28;20181;-58
2022/05/23 11:58:38;;;;;;;5.43;3.50;;;24.40;99.90;;;;;;4971896;28;20181;-56
2022/05/23 12:01:14;;;;;;;4.88;2.75;;;24.50;99.90;;;;;;4971182;28;20640;-57
2022/05/23 12:03:55;;;;;;;4.88;2.92;;;24.40;99.90;;;;;;4970378;28;20189;-52
2022/05/23 12:06:24;;;;;;;6.00;2.58;;;24.20;99.90;;;;;;4970677;28;20178;-59
2022/05/23 12:09:01;;;;;;;4.40;2.53;;;24.00;99.90;;;;;;4971910;28;20277;-55
2022/05/23 12:11:33;;;;;;;3.38;2.67;;;24.00;99.90;;;;;;4971834;28;20204;-55
2022/05/23 12:14:13;;;;;;;3.15;2.28;;;24.10;99.90;;;;;;4971469;28;20190;-53
2022/05/23 12:17:05;;;;;;;4.32;2.40;;;24.20;99.90;;;;;;4970893;28;20178;-56
2022/05/23 12:19:40;;;;;;;3.15;2.47;;;24.20;99.90;;;;;;4972393;28;20244;-56
2022/05/23 12:22:36;;;;;;;4.25;2.03;;;24.30;99.90;;;;;;4972176;28;20189;-56
2022/05/23 12:25:07;;;;;;;2.90;2.40;;;24.60;99.90;;;;;;4970536;28;20174;-57
2022/05/23 12:27:45;;;;;;;2.63;2.15;;;24.80;99.50;;;;;;4969790;28;20185;-57
2022/05/23 12:30:17;;;;;;;3.83;2.40;;;25.00;99.90;;;;;;4969375;28;20190;-58
2022/05/23 12:32:47;;;;;;;2.63;2.25;;;25.20;99.20;;;;;;4971751;28;20241;-56
2022/05/23 12:35:14;;;;;;;2.17;2.05;;;25.20;99.30;;;;;;4969187;28;20170;-58
2022/05/23 12:38:10;;;;;;;4.20;2.00;;;25.20;99.70;;;;;;4974373;28;20163;-54
2022/05/23 12:41:03;;;;;;;3.00;2.20;;;25.20;99.20;;;;;;4956389;28;20206;-58
2022/05/23 12:43:52;;;;;;;3.33;2.20;;;25.20;99.10;;;;;;4956323;28;20268;-50
2022/05/23 12:46:33;;;;;;;3.70;2.20;;;25.20;99.70;;;;;;4956646;28;20181;-56
2022/05/23 12:49:39;;;;;;;2.13;1.80;;;25.50;99.90;;;;;;4956416;28;20189;-57
2022/05/23 12:52:25;;;;;;;3.40;2.17;;;25.90;99.40;;;;;;4956475;28;20206;-55
2022/05/23 12:55:24;;;;;;;4.18;2.05;;;26.10;98.90;;;;;;4956179;28;20183;-56
2022/05/23 12:58:31;;;;;;;3.60;2.30;;;26.00;98.30;;;;;;4970946;28;20225;-57
2022/05/23 13:01:02;;;;;;;3.00;1.90;;;25.80;98.50;;;;;;4954053;29;20182;-57
2022/05/23 13:03:53;;;;;;;3.72;2.30;;;25.90;98.90;;;;;;4953198;28;20202;-57
2022/05/23 13:06:22;;;;;;;2.70;2.15;;;26.10;98.30;;;;;;4952027;28;20210;-53
2022/05/23 13:09:07;;;;;;;4.80;2.40;;;26.20;98.40;;;;;;4953707;29;20222;-55
2022/05/23 13:11:47;;;;;;;2.83;2.35;;;26.20;97.90;;;;;;4953679;29;20218;-56
2022/05/23 13:14:12;;;;;;;2.50;2.30;;;26.30;97.90;;;;;;4953540;28;20275;-58
2022/05/23 13:16:39;;;;;;;3.95;2.47;;;26.40;97.30;;;;;;4953801;29;20199;-57
2022/05/23 13:22:05;;;;;;;2.22;2.00;;;26.40;97.20;;;;;;4953957;29;20234;-57
2022/05/23 13:24:48;;;;;;;2.22;2.00;;;26.40;97.10;;;;;;4953080;28;20309;-59
2022/05/23 13:27:22;;;;;;;4.93;2.38;;;26.40;97.40;;;;;;4951166;28;20186;-55
2022/05/23 13:30:28;;;;;;;2.38;2.17;;;26.50;97.80;;;;;;4958198;28;20209;-55
2022/05/23 13:33:09;;;;;;;3.20;2.30;;;26.70;97.40;;;;;;4971838;28;20209;-58
2022/05/23 13:35:36;;;;;;;2.72;2.17;;;26.70;97.10;;;;;;4975176;28;20177;-57
2022/05/23 13:38:13;;;;;;;2.95;1.90;;;26.50;96.80;;;;;;4984250;28;20493;-57
2022/05/23 13:40:46;;;;;;;2.45;2.10;;;26.40;97.30;;;;;;4978139;28;20184;-55
2022/05/23 13:43:19;;;;;;;3.25;2.38;;;26.40;96.90;;;;;;4974350;28;20193;-58
2022/05/23 13:45:54;;;;;;;2.40;2.20;;;26.50;97.10;;;;;;4980192;28;20174;-56
2022/05/23 13:48:26;;;;;;;2.83;2.25;;;25.90;97.20;;;;;;4974222;28;20173;-55
2022/05/23 13:51:00;;;;;;;3.40;2.22;;;25.70;97.00;;;;;;4974090;28;20213;-56
2022/05/23 13:53:36;;;;;;;2.33;2.00;;;25.60;96.90;;;;;;4974547;28;20612;-58
2022/05/23 13:56:02;;;;;;;2.63;2.00;;;25.50;96.80;;;;;;4974705;28;20180;-55
2022/05/23 13:58:33;;;;;;;5.07;2.17;;;25.50;96.90;;;;;;4973601;28;20170;-57
2022/05/23 14:01:07;;;;;;;2.53;1.85;;;25.30;96.90;;;;;;4974670;28;20179;-53
2022/05/23 14:03:45;;;;;;;3.67;2.10;;;25.30;97.80;;;;;;4974297;28;20220;-56
2022/05/23 14:06:18;;;;;;;3.15;2.10;;;25.40;97.80;;;;;;4974451;28;20252;-54
2022/05/23 14:08:55;;;;;;;4.28;2.20;;;25.40;97.40;;;;;;4973414;28;20185;-59
2022/05/23 14:11:26;;;;;;;4.35;2.35;;;25.40;97.10;;;;;;4974448;28;20201;-56
2022/05/23 14:13:57;;;;;;;3.17;2.15;;;25.10;97.90;;;;;;4974126;28;20197;-57
2022/05/23 14:16:23;;;;;;;4.60;2.05;;;25.20;97.40;;;;;;4974351;28;20201;-55
2022/05/23 14:19:17;;;;;;;4.78;2.38;;;25.40;97.60;;;;;;4974256;28;20177;-56